sensor_id;sensor_type;location;lat;lon;timestamp;P1;durP1;ratioP1;P2;durP2;ratioP2
39098;SDS011;24844;52.380;7.018;2023-02-15T00:01:43;43.17;;;27.33;;
39098;SDS011;24844;52.380;7.018;2023-02-15T00:04:11;43.45;;;27.77;;
39098;SDS011;24844;52.380;7.018;2023-02-15T00:06:38;43.97;;;27.58;;
39098;SDS011;24844;52.380;7.018;2023-02-15T00:09:04;47.33;;;28.25;;
39098;SDS011;24844;52.380;7.018;2023-02-15T00:11:29;44.15;;;26.42;;
39098;SDS011;24844;52.380;7.018;2023-02-15T00:14:05;39.60;;;24.73;;
39098;SDS011;24844;52.380;7.018;2023-02-15T00:16:37;37.30;;;22.10;;
39098;SDS011;24844;52.380;7.018;2023-02-15T00:19:04;38.65;;;23.17;;
39098;SDS011;24844;52.380;7.018;2023-02-15T00:21:30;40.97;;;23.73;;
39098;SDS011;24844;52.380;7.018;2023-02-15T00:23:57;34.58;;;21.08;;
39098;SDS011;24844;52.380;7.018;2023-02-15T00:26:25;40.15;;;24.35;;
39098;SDS011;24844;52.380;7.018;2023-02-15T00:28:51;41.67;;;25.90;;
39098;SDS011;24844;52.380;7.018;2023-02-15T00:31:17;44.80;;;24.90;;
39098;SDS011;24844;52.380;7.018;2023-02-15T00:33:43;35.65;;;23.70;;
39098;SDS011;24844;52.380;7.018;2023-02-15T00:36:09;36.30;;;22.17;;
39098;SDS011;24844;52.380;7.018;2023-02-15T00:38:35;47.55;;;27.45;;
39098;SDS011;24844;52.380;7.018;2023-02-15T00:41:03;44.97;;;28.13;;
39098;SDS011;24844;52.380;7.018;2023-02-15T00:43:30;53.65;;;31.60;;
39098;SDS011;24844;52.380;7.018;2023-02-15T00:45:57;39.40;;;25.65;;
39098;SDS011;24844;52.380;7.018;2023-02-15T00:48:22;41.90;;;25.90;;
39098;SDS011;24844;52.380;7.018;2023-02-15T00:50:49;45.70;;;25.80;;
39098;SDS011;24844;52.380;7.018;2023-02-15T00:53:16;45.03;;;25.33;;
39098;SDS011;24844;52.380;7.018;2023-02-15T00:55:42;38.10;;;23.67;;
39098;SDS011;24844;52.380;7.018;2023-02-15T00:58:08;37.45;;;23.45;;
39098;SDS011;24844;52.380;7.018;2023-02-15T01:00:35;42.95;;;25.30;;
39098;SDS011;24844;52.380;7.018;2023-02-15T01:03:01;44.17;;;27.15;;
39098;SDS011;24844;52.380;7.018;2023-02-15T01:05:27;44.35;;;26.92;;
39098;SDS011;24844;52.380;7.018;2023-02-15T01:07:54;36.47;;;22.65;;
39098;SDS011;24844;52.380;7.018;2023-02-15T01:10:21;46.85;;;27.85;;
39098;SDS011;24844;52.380;7.018;2023-02-15T01:12:47;45.05;;;28.58;;
39098;SDS011;24844;52.380;7.018;2023-02-15T01:15:13;56.20;;;32.10;;
39098;SDS011;24844;52.380;7.018;2023-02-15T01:17:38;54.92;;;32.53;;
39098;SDS011;24844;52.380;7.018;2023-02-15T01:20:04;42.28;;;26.88;;
39098;SDS011;24844;52.380;7.018;2023-02-15T01:22:31;58.08;;;33.13;;
39098;SDS011;24844;52.380;7.018;2023-02-15T01:24:56;52.70;;;31.13;;
39098;SDS011;24844;52.380;7.018;2023-02-15T01:27:22;64.15;;;34.83;;
39098;SDS011;24844;52.380;7.018;2023-02-15T01:29:48;69.63;;;35.58;;
39098;SDS011;24844;52.380;7.018;2023-02-15T01:32:13;72.63;;;36.45;;
39098;SDS011;24844;52.380;7.018;2023-02-15T01:34:39;77.43;;;38.40;;
39098;SDS011;24844;52.380;7.018;2023-02-15T01:37:04;65.10;;;34.20;;
39098;SDS011;24844;52.380;7.018;2023-02-15T01:39:30;58.92;;;31.67;;
39098;SDS011;24844;52.380;7.018;2023-02-15T01:41:55;60.72;;;31.52;;
39098;SDS011;24844;52.380;7.018;2023-02-15T01:47:43;68.18;;;36.50;;
39098;SDS011;24844;52.380;7.018;2023-02-15T01:50:17;70.70;;;35.63;;
39098;SDS011;24844;52.380;7.018;2023-02-15T01:52:58;63.58;;;34.38;;
39098;SDS011;24844;52.380;7.018;2023-02-15T01:55:30;50.50;;;28.10;;
39098;SDS011;24844;52.380;7.018;2023-02-15T01:57:59;52.03;;;30.05;;
39098;SDS011;24844;52.380;7.018;2023-02-15T02:00:25;63.60;;;34.15;;
39098;SDS011;24844;52.380;7.018;2023-02-15T02:02:52;59.45;;;32.75;;
39098;SDS011;24844;52.380;7.018;2023-02-15T02:05:19;57.20;;;31.05;;
39098;SDS011;24844;52.380;7.018;2023-02-15T02:07:45;72.47;;;36.58;;
39098;SDS011;24844;52.380;7.018;2023-02-15T02:10:16;53.30;;;30.35;;
39098;SDS011;24844;52.380;7.018;2023-02-15T02:12:44;55.50;;;28.35;;
39098;SDS011;24844;52.380;7.018;2023-02-15T02:15:12;53.22;;;29.35;;
39098;SDS011;24844;52.380;7.018;2023-02-15T02:26:09;49.20;;;26.63;;
39098;SDS011;24844;52.380;7.018;2023-02-15T02:29:18;44.83;;;23.67;;
39098;SDS011;24844;52.380;7.018;2023-02-15T02:34:51;52.45;;;27.17;;
39098;SDS011;24844;52.380;7.018;2023-02-15T02:37:46;46.60;;;25.08;;
39098;SDS011;24844;52.380;7.018;2023-02-15T02:40:36;51.17;;;28.45;;
39098;SDS011;24844;52.380;7.018;2023-02-15T02:43:05;45.55;;;27.95;;
39098;SDS011;24844;52.380;7.018;2023-02-15T02:45:40;60.65;;;31.25;;
39098;SDS011;24844;52.380;7.018;2023-02-15T02:48:14;52.88;;;29.33;;
39098;SDS011;24844;52.380;7.018;2023-02-15T02:50:41;44.97;;;26.90;;
39098;SDS011;24844;52.380;7.018;2023-02-15T02:53:09;52.25;;;29.48;;
39098;SDS011;24844;52.380;7.018;2023-02-15T03:01:19;60.05;;;32.40;;
39098;SDS011;24844;52.380;7.018;2023-02-15T03:03:49;54.13;;;30.20;;
39098;SDS011;24844;52.380;7.018;2023-02-15T03:06:20;67.32;;;35.22;;
39098;SDS011;24844;52.380;7.018;2023-02-15T03:08:54;66.82;;;36.67;;
39098;SDS011;24844;52.380;7.018;2023-02-15T03:11:39;71.22;;;36.35;;
39098;SDS011;24844;52.380;7.018;2023-02-15T03:14:09;69.90;;;35.72;;
39098;SDS011;24844;52.380;7.018;2023-02-15T03:16:36;77.28;;;38.33;;
39098;SDS011;24844;52.380;7.018;2023-02-15T03:19:08;68.00;;;34.40;;
39098;SDS011;24844;52.380;7.018;2023-02-15T03:21:38;92.20;;;41.97;;
39098;SDS011;24844;52.380;7.018;2023-02-15T03:24:24;88.35;;;41.15;;
39098;SDS011;24844;52.380;7.018;2023-02-15T03:26:57;104.82;;;48.30;;
39098;SDS011;24844;52.380;7.018;2023-02-15T03:29:23;79.93;;;38.53;;
39098;SDS011;24844;52.380;7.018;2023-02-15T03:31:54;76.88;;;39.83;;
39098;SDS011;24844;52.380;7.018;2023-02-15T03:34:25;69.10;;;36.38;;
39098;SDS011;24844;52.380;7.018;2023-02-15T03:37:11;75.32;;;39.42;;
39098;SDS011;24844;52.380;7.018;2023-02-15T03:39:45;87.13;;;40.30;;
39098;SDS011;24844;52.380;7.018;2023-02-15T03:42:31;80.07;;;39.20;;
39098;SDS011;24844;52.380;7.018;2023-02-15T03:45:05;75.65;;;36.90;;
39098;SDS011;24844;52.380;7.018;2023-02-15T03:47:37;66.45;;;33.95;;
39098;SDS011;24844;52.380;7.018;2023-02-15T03:50:17;72.25;;;35.72;;
39098;SDS011;24844;52.380;7.018;2023-02-15T03:53:05;79.57;;;38.75;;
39098;SDS011;24844;52.380;7.018;2023-02-15T03:55:34;84.53;;;40.83;;
39098;SDS011;24844;52.380;7.018;2023-02-15T03:58:00;77.25;;;36.20;;
39098;SDS011;24844;52.380;7.018;2023-02-15T04:00:47;70.55;;;35.95;;
39098;SDS011;24844;52.380;7.018;2023-02-15T04:04:09;67.82;;;33.28;;
39098;SDS011;24844;52.380;7.018;2023-02-15T04:06:36;65.63;;;33.88;;
39098;SDS011;24844;52.380;7.018;2023-02-15T04:09:02;66.70;;;31.88;;
39098;SDS011;24844;52.380;7.018;2023-02-15T04:11:46;71.60;;;35.08;;
39098;SDS011;24844;52.380;7.018;2023-02-15T04:14:12;81.80;;;38.92;;
39098;SDS011;24844;52.380;7.018;2023-02-15T04:16:56;81.85;;;38.90;;
39098;SDS011;24844;52.380;7.018;2023-02-15T04:19:21;78.05;;;37.08;;
39098;SDS011;24844;52.380;7.018;2023-02-15T04:22:05;51.30;;;28.67;;
39098;SDS011;24844;52.380;7.018;2023-02-15T04:24:49;76.00;;;37.50;;
39098;SDS011;24844;52.380;7.018;2023-02-15T04:27:33;67.25;;;36.50;;
39098;SDS011;24844;52.380;7.018;2023-02-15T04:29:59;79.13;;;41.28;;
39098;SDS011;24844;52.380;7.018;2023-02-15T04:32:25;68.50;;;36.35;;
39098;SDS011;24844;52.380;7.018;2023-02-15T04:34:50;73.55;;;38.53;;
39098;SDS011;24844;52.380;7.018;2023-02-15T04:37:16;67.18;;;36.72;;
39098;SDS011;24844;52.380;7.018;2023-02-15T04:39:41;73.97;;;36.60;;
39098;SDS011;24844;52.380;7.018;2023-02-15T04:42:07;80.20;;;39.78;;
39098;SDS011;24844;52.380;7.018;2023-02-15T04:44:32;77.03;;;37.00;;
39098;SDS011;24844;52.380;7.018;2023-02-15T04:46:58;75.53;;;35.92;;
39098;SDS011;24844;52.380;7.018;2023-02-15T04:49:23;89.55;;;40.95;;
39098;SDS011;24844;52.380;7.018;2023-02-15T04:51:49;87.35;;;41.42;;
39098;SDS011;24844;52.380;7.018;2023-02-15T04:54:14;118.60;;;50.72;;
39098;SDS011;24844;52.380;7.018;2023-02-15T04:56:40;86.97;;;41.50;;
39098;SDS011;24844;52.380;7.018;2023-02-15T04:59:09;121.97;;;49.45;;
39098;SDS011;24844;52.380;7.018;2023-02-15T05:01:36;103.65;;;45.15;;
39098;SDS011;24844;52.380;7.018;2023-02-15T05:04:01;108.47;;;48.38;;
39098;SDS011;24844;52.380;7.018;2023-02-15T05:06:27;133.05;;;54.78;;
39098;SDS011;24844;52.380;7.018;2023-02-15T05:08:53;118.82;;;53.35;;
39098;SDS011;24844;52.380;7.018;2023-02-15T05:11:19;90.63;;;42.83;;
39098;SDS011;24844;52.380;7.018;2023-02-15T05:13:44;107.95;;;44.33;;
39098;SDS011;24844;52.380;7.018;2023-02-15T05:16:10;95.25;;;43.17;;
39098;SDS011;24844;52.380;7.018;2023-02-15T05:18:35;82.13;;;39.83;;
39098;SDS011;24844;52.380;7.018;2023-02-15T05:21:01;88.55;;;42.65;;
39098;SDS011;24844;52.380;7.018;2023-02-15T05:23:26;85.57;;;42.50;;
39098;SDS011;24844;52.380;7.018;2023-02-15T05:25:52;97.13;;;44.42;;
39098;SDS011;24844;52.380;7.018;2023-02-15T05:28:37;93.10;;;41.83;;
39098;SDS011;24844;52.380;7.018;2023-02-15T05:33:31;94.57;;;40.67;;
39098;SDS011;24844;52.380;7.018;2023-02-15T05:35:57;97.82;;;42.53;;
39098;SDS011;24844;52.380;7.018;2023-02-15T05:38:23;94.90;;;41.70;;
39098;SDS011;24844;52.380;7.018;2023-02-15T05:40:49;89.28;;;39.00;;
39098;SDS011;24844;52.380;7.018;2023-02-15T05:43:16;95.35;;;39.83;;
39098;SDS011;24844;52.380;7.018;2023-02-15T05:45:44;96.32;;;41.58;;
39098;SDS011;24844;52.380;7.018;2023-02-15T05:48:14;84.93;;;39.58;;
39098;SDS011;24844;52.380;7.018;2023-02-15T05:50:40;88.20;;;39.13;;
39098;SDS011;24844;52.380;7.018;2023-02-15T05:53:06;84.80;;;38.40;;
39098;SDS011;24844;52.380;7.018;2023-02-15T05:55:31;84.93;;;38.08;;
39098;SDS011;24844;52.380;7.018;2023-02-15T05:57:57;88.28;;;38.90;;
39098;SDS011;24844;52.380;7.018;2023-02-15T06:00:23;84.80;;;38.78;;
39098;SDS011;24844;52.380;7.018;2023-02-15T06:02:48;81.43;;;37.47;;
39098;SDS011;24844;52.380;7.018;2023-02-15T06:05:14;77.72;;;35.33;;
39098;SDS011;24844;52.380;7.018;2023-02-15T06:07:42;80.88;;;36.65;;
39098;SDS011;24844;52.380;7.018;2023-02-15T06:10:09;67.68;;;34.40;;
39098;SDS011;24844;52.380;7.018;2023-02-15T06:12:34;82.13;;;37.72;;
39098;SDS011;24844;52.380;7.018;2023-02-15T06:15:00;80.07;;;39.40;;
39098;SDS011;24844;52.380;7.018;2023-02-15T06:17:25;76.70;;;36.08;;
39098;SDS011;24844;52.380;7.018;2023-02-15T06:19:51;71.93;;;34.35;;
39098;SDS011;24844;52.380;7.018;2023-02-15T06:22:17;75.97;;;36.53;;
39098;SDS011;24844;52.380;7.018;2023-02-15T06:24:42;73.50;;;34.30;;
39098;SDS011;24844;52.380;7.018;2023-02-15T06:27:09;81.57;;;36.20;;
39098;SDS011;24844;52.380;7.018;2023-02-15T06:29:35;83.85;;;39.72;;
39098;SDS011;24844;52.380;7.018;2023-02-15T06:32:00;75.78;;;37.70;;
39098;SDS011;24844;52.380;7.018;2023-02-15T06:34:26;78.13;;;35.55;;
39098;SDS011;24844;52.380;7.018;2023-02-15T06:36:51;67.15;;;33.33;;
39098;SDS011;24844;52.380;7.018;2023-02-15T06:39:17;67.88;;;34.17;;
39098;SDS011;24844;52.380;7.018;2023-02-15T06:41:43;73.07;;;35.83;;
39098;SDS011;24844;52.380;7.018;2023-02-15T06:44:08;72.82;;;35.60;;
39098;SDS011;24844;52.380;7.018;2023-02-15T06:46:34;73.07;;;36.83;;
39098;SDS011;24844;52.380;7.018;2023-02-15T06:48:59;67.53;;;34.08;;
39098;SDS011;24844;52.380;7.018;2023-02-15T06:51:25;69.25;;;34.05;;
39098;SDS011;24844;52.380;7.018;2023-02-15T06:53:51;80.97;;;38.80;;
39098;SDS011;24844;52.380;7.018;2023-02-15T06:56:16;78.80;;;36.22;;
39098;SDS011;24844;52.380;7.018;2023-02-15T06:58:42;66.70;;;33.80;;
39098;SDS011;24844;52.380;7.018;2023-02-15T07:01:08;64.47;;;34.00;;
39098;SDS011;24844;52.380;7.018;2023-02-15T07:03:34;74.53;;;36.13;;
39098;SDS011;24844;52.380;7.018;2023-02-15T07:06:01;82.22;;;40.78;;
39098;SDS011;24844;52.380;7.018;2023-02-15T07:08:27;72.75;;;37.17;;
39098;SDS011;24844;52.380;7.018;2023-02-15T07:10:53;92.50;;;44.55;;
39098;SDS011;24844;52.380;7.018;2023-02-15T07:13:40;91.85;;;47.35;;
39098;SDS011;24844;52.380;7.018;2023-02-15T07:16:07;87.55;;;43.50;;
39098;SDS011;24844;52.380;7.018;2023-02-15T07:18:34;90.93;;;43.97;;
39098;SDS011;24844;52.380;7.018;2023-02-15T07:20:59;96.47;;;43.95;;
39098;SDS011;24844;52.380;7.018;2023-02-15T07:23:25;87.50;;;42.08;;
39098;SDS011;24844;52.380;7.018;2023-02-15T07:25:56;93.82;;;43.33;;
39098;SDS011;24844;52.380;7.018;2023-02-15T07:28:25;99.55;;;43.35;;
39098;SDS011;24844;52.380;7.018;2023-02-15T07:30:51;92.63;;;42.20;;
39098;SDS011;24844;52.380;7.018;2023-02-15T07:33:17;93.38;;;44.10;;
39098;SDS011;24844;52.380;7.018;2023-02-15T07:35:52;84.40;;;39.42;;
39098;SDS011;24844;52.380;7.018;2023-02-15T07:38:20;92.05;;;42.60;;
39098;SDS011;24844;52.380;7.018;2023-02-15T07:40:46;80.05;;;39.50;;
39098;SDS011;24844;52.380;7.018;2023-02-15T07:43:12;101.55;;;48.22;;
39098;SDS011;24844;52.380;7.018;2023-02-15T07:45:39;94.68;;;46.28;;
39098;SDS011;24844;52.380;7.018;2023-02-15T07:48:05;109.93;;;50.90;;
39098;SDS011;24844;52.380;7.018;2023-02-15T07:50:32;101.30;;;47.38;;
39098;SDS011;24844;52.380;7.018;2023-02-15T07:52:58;104.32;;;48.10;;
39098;SDS011;24844;52.380;7.018;2023-02-15T07:55:25;95.38;;;45.33;;
39098;SDS011;24844;52.380;7.018;2023-02-15T07:57:51;98.55;;;47.63;;
39098;SDS011;24844;52.380;7.018;2023-02-15T08:00:19;94.25;;;47.17;;
39098;SDS011;24844;52.380;7.018;2023-02-15T08:02:50;100.93;;;49.10;;
39098;SDS011;24844;52.380;7.018;2023-02-15T08:05:37;92.15;;;48.70;;
39098;SDS011;24844;52.380;7.018;2023-02-15T08:08:07;74.82;;;40.33;;
39098;SDS011;24844;52.380;7.018;2023-02-15T08:10:34;93.18;;;45.10;;
39098;SDS011;24844;52.380;7.018;2023-02-15T08:13:19;90.55;;;46.38;;
39098;SDS011;24844;52.380;7.018;2023-02-15T08:15:51;90.65;;;48.35;;
39098;SDS011;24844;52.380;7.018;2023-02-15T08:18:16;79.25;;;42.58;;
39098;SDS011;24844;52.380;7.018;2023-02-15T08:20:42;81.82;;;45.65;;
39098;SDS011;24844;52.380;7.018;2023-02-15T08:23:13;81.85;;;44.30;;
39098;SDS011;24844;52.380;7.018;2023-02-15T08:25:39;76.10;;;42.70;;
39098;SDS011;24844;52.380;7.018;2023-02-15T08:28:04;92.72;;;49.90;;
39098;SDS011;24844;52.380;7.018;2023-02-15T08:30:30;76.30;;;42.38;;
39098;SDS011;24844;52.380;7.018;2023-02-15T08:32:56;94.13;;;47.90;;
39098;SDS011;24844;52.380;7.018;2023-02-15T08:35:21;81.93;;;47.15;;
39098;SDS011;24844;52.380;7.018;2023-02-15T08:37:47;80.15;;;45.47;;
39098;SDS011;24844;52.380;7.018;2023-02-15T08:40:12;78.82;;;43.88;;
39098;SDS011;24844;52.380;7.018;2023-02-15T08:42:38;75.65;;;43.97;;
39098;SDS011;24844;52.380;7.018;2023-02-15T08:45:04;68.10;;;40.60;;
39098;SDS011;24844;52.380;7.018;2023-02-15T08:47:30;69.47;;;43.60;;
39098;SDS011;24844;52.380;7.018;2023-02-15T08:49:55;69.45;;;41.85;;
39098;SDS011;24844;52.380;7.018;2023-02-15T08:52:21;67.32;;;41.20;;
39098;SDS011;24844;52.380;7.018;2023-02-15T08:54:47;60.00;;;39.53;;
39098;SDS011;24844;52.380;7.018;2023-02-15T08:57:18;59.22;;;36.80;;
39098;SDS011;24844;52.380;7.018;2023-02-15T08:59:48;48.00;;;32.65;;
39098;SDS011;24844;52.380;7.018;2023-02-15T09:02:19;45.33;;;30.33;;
39098;SDS011;24844;52.380;7.018;2023-02-15T09:04:49;45.10;;;29.85;;
39098;SDS011;24844;52.380;7.018;2023-02-15T09:07:20;43.60;;;27.60;;
39098;SDS011;24844;52.380;7.018;2023-02-15T09:09:54;39.97;;;26.63;;
39098;SDS011;24844;52.380;7.018;2023-02-15T09:12:25;40.78;;;26.77;;
39098;SDS011;24844;52.380;7.018;2023-02-15T09:14:54;39.85;;;25.75;;
39098;SDS011;24844;52.380;7.018;2023-02-15T09:17:26;42.83;;;26.85;;
39098;SDS011;24844;52.380;7.018;2023-02-15T09:19:57;37.90;;;27.00;;
39098;SDS011;24844;52.380;7.018;2023-02-15T09:22:28;42.03;;;26.52;;
39098;SDS011;24844;52.380;7.018;2023-02-15T09:24:56;37.13;;;25.35;;
39098;SDS011;24844;52.380;7.018;2023-02-15T09:27:38;36.42;;;27.00;;
39098;SDS011;24844;52.380;7.018;2023-02-15T09:30:14;39.38;;;25.48;;
39098;SDS011;24844;52.380;7.018;2023-02-15T09:32:42;35.10;;;24.90;;
39098;SDS011;24844;52.380;7.018;2023-02-15T09:37:50;37.20;;;25.05;;
39098;SDS011;24844;52.380;7.018;2023-02-15T09:40:25;38.20;;;25.50;;
39098;SDS011;24844;52.380;7.018;2023-02-15T09:43:05;37.55;;;26.42;;
39098;SDS011;24844;52.380;7.018;2023-02-15T09:48:26;37.08;;;26.02;;
39098;SDS011;24844;52.380;7.018;2023-02-15T09:51:10;38.15;;;26.45;;
39098;SDS011;24844;52.380;7.018;2023-02-15T09:53:52;39.03;;;24.83;;
39098;SDS011;24844;52.380;7.018;2023-02-15T10:01:49;39.10;;;27.17;;
39098;SDS011;24844;52.380;7.018;2023-02-15T10:10:12;37.88;;;26.33;;
39098;SDS011;24844;52.380;7.018;2023-02-15T10:22:43;39.42;;;26.25;;
39098;SDS011;24844;52.380;7.018;2023-02-15T10:27:46;40.38;;;27.17;;
39098;SDS011;24844;52.380;7.018;2023-02-15T10:30:27;39.53;;;26.95;;
39098;SDS011;24844;52.380;7.018;2023-02-15T10:33:02;40.30;;;26.33;;
39098;SDS011;24844;52.380;7.018;2023-02-15T10:41:06;35.33;;;26.27;;
39098;SDS011;24844;52.380;7.018;2023-02-15T10:46:49;41.95;;;28.08;;
39098;SDS011;24844;52.380;7.018;2023-02-15T10:52:18;38.88;;;26.48;;
39098;SDS011;24844;52.380;7.018;2023-02-15T10:55:00;38.60;;;27.15;;
39098;SDS011;24844;52.380;7.018;2023-02-15T10:57:34;38.60;;;25.67;;
39098;SDS011;24844;52.380;7.018;2023-02-15T11:00:27;39.53;;;26.13;;
39098;SDS011;24844;52.380;7.018;2023-02-15T11:03:05;40.35;;;28.42;;
39098;SDS011;24844;52.380;7.018;2023-02-15T11:05:40;36.67;;;25.90;;
39098;SDS011;24844;52.380;7.018;2023-02-15T11:08:15;39.30;;;26.30;;
39098;SDS011;24844;52.380;7.018;2023-02-15T11:10:49;38.25;;;25.52;;
39098;SDS011;24844;52.380;7.018;2023-02-15T11:13:18;40.70;;;27.00;;
39098;SDS011;24844;52.380;7.018;2023-02-15T11:21:09;39.33;;;26.27;;
39098;SDS011;24844;52.380;7.018;2023-02-15T11:23:40;36.88;;;25.23;;
39098;SDS011;24844;52.380;7.018;2023-02-15T11:28:51;38.47;;;25.02;;
39098;SDS011;24844;52.380;7.018;2023-02-15T11:31:22;38.38;;;26.15;;
39098;SDS011;24844;52.380;7.018;2023-02-15T11:33:53;36.53;;;24.75;;
39098;SDS011;24844;52.380;7.018;2023-02-15T11:36:32;37.08;;;24.15;;
39098;SDS011;24844;52.380;7.018;2023-02-15T11:39:04;39.58;;;25.25;;
39098;SDS011;24844;52.380;7.018;2023-02-15T11:41:40;39.22;;;24.40;;
39098;SDS011;24844;52.380;7.018;2023-02-15T11:44:12;37.63;;;25.17;;
39098;SDS011;24844;52.380;7.018;2023-02-15T11:46:40;40.80;;;25.77;;
39098;SDS011;24844;52.380;7.018;2023-02-15T11:49:54;40.35;;;25.52;;
39098;SDS011;24844;52.380;7.018;2023-02-15T11:51:55;41.67;;;24.77;;
39098;SDS011;24844;52.380;7.018;2023-02-15T11:54:26;41.00;;;26.65;;
39098;SDS011;24844;52.380;7.018;2023-02-15T11:56:54;41.45;;;25.65;;
39098;SDS011;24844;52.380;7.018;2023-02-15T11:59:27;42.72;;;25.92;;
39098;SDS011;24844;52.380;7.018;2023-02-15T12:01:54;48.35;;;27.27;;
39098;SDS011;24844;52.380;7.018;2023-02-15T12:04:26;45.97;;;27.38;;
39098;SDS011;24844;52.380;7.018;2023-02-15T12:06:55;42.80;;;26.75;;
39098;SDS011;24844;52.380;7.018;2023-02-15T12:11:53;43.10;;;27.15;;
39098;SDS011;24844;52.380;7.018;2023-02-15T12:14:20;48.60;;;25.83;;
39098;SDS011;24844;52.380;7.018;2023-02-15T12:16:48;45.20;;;25.80;;
39098;SDS011;24844;52.380;7.018;2023-02-15T12:19:32;41.78;;;25.50;;
39098;SDS011;24844;52.380;7.018;2023-02-15T12:22:01;47.00;;;25.67;;
39098;SDS011;24844;52.380;7.018;2023-02-15T12:24:36;46.63;;;26.00;;
39098;SDS011;24844;52.380;7.018;2023-02-15T12:29:33;58.42;;;27.25;;
39098;SDS011;24844;52.380;7.018;2023-02-15T12:32:00;48.28;;;24.80;;
39098;SDS011;24844;52.380;7.018;2023-02-15T12:34:32;43.15;;;26.52;;
39098;SDS011;24844;52.380;7.018;2023-02-15T12:37:02;42.42;;;25.75;;
39098;SDS011;24844;52.380;7.018;2023-02-15T12:39:33;39.35;;;24.83;;
39098;SDS011;24844;52.380;7.018;2023-02-15T12:42:01;40.33;;;24.35;;
39098;SDS011;24844;52.380;7.018;2023-02-15T12:44:32;41.05;;;25.15;;
39098;SDS011;24844;52.380;7.018;2023-02-15T12:49:26;43.60;;;25.33;;
39098;SDS011;24844;52.380;7.018;2023-02-15T12:51:54;39.67;;;23.92;;
39098;SDS011;24844;52.380;7.018;2023-02-15T12:56:51;44.08;;;26.35;;
39098;SDS011;24844;52.380;7.018;2023-02-15T12:59:21;41.35;;;24.15;;
39098;SDS011;24844;52.380;7.018;2023-02-15T13:01:47;39.75;;;22.38;;
39098;SDS011;24844;52.380;7.018;2023-02-15T13:04:32;41.63;;;23.00;;
39098;SDS011;24844;52.380;7.018;2023-02-15T13:06:59;43.33;;;22.90;;
39098;SDS011;24844;52.380;7.018;2023-02-15T13:11:56;43.42;;;24.58;;
39098;SDS011;24844;52.380;7.018;2023-02-15T13:14:33;46.88;;;24.85;;
39098;SDS011;24844;52.380;7.018;2023-02-15T13:17:00;39.15;;;23.80;;
39098;SDS011;24844;52.380;7.018;2023-02-15T13:19:38;45.20;;;24.25;;
39098;SDS011;24844;52.380;7.018;2023-02-15T13:22:17;43.05;;;22.17;;
39098;SDS011;24844;52.380;7.018;2023-02-15T13:25:03;45.63;;;21.48;;
39098;SDS011;24844;52.380;7.018;2023-02-15T13:27:36;43.28;;;22.90;;
39098;SDS011;24844;52.380;7.018;2023-02-15T13:30:13;39.83;;;22.80;;
39098;SDS011;24844;52.380;7.018;2023-02-15T13:32:52;47.90;;;24.58;;
39098;SDS011;24844;52.380;7.018;2023-02-15T13:35:19;43.25;;;21.95;;
39098;SDS011;24844;52.380;7.018;2023-02-15T13:43:25;37.30;;;19.13;;
39098;SDS011;24844;52.380;7.018;2023-02-15T13:45:57;38.30;;;20.27;;
39098;SDS011;24844;52.380;7.018;2023-02-15T13:48:41;45.88;;;22.25;;
39098;SDS011;24844;52.380;7.018;2023-02-15T13:51:21;39.78;;;20.08;;
39098;SDS011;24844;52.380;7.018;2023-02-15T14:05:46;40.00;;;20.83;;
39098;SDS011;24844;52.380;7.018;2023-02-15T14:11:12;35.78;;;21.20;;
39098;SDS011;24844;52.380;7.018;2023-02-15T14:16:23;36.50;;;18.95;;
39098;SDS011;24844;52.380;7.018;2023-02-15T14:21:48;38.58;;;20.48;;
39098;SDS011;24844;52.380;7.018;2023-02-15T14:29:51;40.40;;;21.80;;
39098;SDS011;24844;52.380;7.018;2023-02-15T14:34:58;38.05;;;21.20;;
39098;SDS011;24844;52.380;7.018;2023-02-15T14:45:43;42.15;;;21.73;;
39098;SDS011;24844;52.380;7.018;2023-02-15T14:51:09;38.15;;;21.35;;
39098;SDS011;24844;52.380;7.018;2023-02-15T14:53:38;35.50;;;20.45;;
39098;SDS011;24844;52.380;7.018;2023-02-15T14:58:54;40.50;;;22.23;;
39098;SDS011;24844;52.380;7.018;2023-02-15T15:04:03;36.80;;;20.42;;
39098;SDS011;24844;52.380;7.018;2023-02-15T15:06:33;37.03;;;20.42;;
39098;SDS011;24844;52.380;7.018;2023-02-15T15:14:40;35.25;;;20.08;;
39098;SDS011;24844;52.380;7.018;2023-02-15T15:17:09;37.00;;;20.55;;
39098;SDS011;24844;52.380;7.018;2023-02-15T15:22:22;36.75;;;21.17;;
39098;SDS011;24844;52.380;7.018;2023-02-15T15:24:50;37.60;;;20.77;;
39098;SDS011;24844;52.380;7.018;2023-02-15T15:30:02;37.83;;;22.20;;
39098;SDS011;24844;52.380;7.018;2023-02-15T15:32:33;35.03;;;21.02;;
39098;SDS011;24844;52.380;7.018;2023-02-15T15:35:04;34.60;;;20.95;;
39098;SDS011;24844;52.380;7.018;2023-02-15T15:40:56;36.50;;;21.88;;
39098;SDS011;24844;52.380;7.018;2023-02-15T15:46:31;41.08;;;22.67;;
39098;SDS011;24844;52.380;7.018;2023-02-15T15:49:02;38.72;;;21.73;;
39098;SDS011;24844;52.380;7.018;2023-02-15T15:51:42;34.00;;;21.38;;
39098;SDS011;24844;52.380;7.018;2023-02-15T15:54:14;38.15;;;21.52;;
39098;SDS011;24844;52.380;7.018;2023-02-15T15:56:43;36.72;;;22.08;;
39098;SDS011;24844;52.380;7.018;2023-02-15T15:59:12;37.78;;;22.38;;
39098;SDS011;24844;52.380;7.018;2023-02-15T16:01:44;37.88;;;21.33;;
39098;SDS011;24844;52.380;7.018;2023-02-15T16:04:11;38.22;;;21.73;;
39098;SDS011;24844;52.380;7.018;2023-02-15T16:06:38;36.65;;;21.58;;
39098;SDS011;24844;52.380;7.018;2023-02-15T16:09:09;38.35;;;21.70;;
39098;SDS011;24844;52.380;7.018;2023-02-15T16:11:41;38.38;;;21.40;;
39098;SDS011;24844;52.380;7.018;2023-02-15T16:14:11;39.92;;;24.00;;
39098;SDS011;24844;52.380;7.018;2023-02-15T16:16:51;37.78;;;22.02;;
39098;SDS011;24844;52.380;7.018;2023-02-15T16:19:36;42.15;;;23.45;;
39098;SDS011;24844;52.380;7.018;2023-02-15T16:22:07;38.03;;;22.52;;
39098;SDS011;24844;52.380;7.018;2023-02-15T16:24:54;42.45;;;24.27;;
39098;SDS011;24844;52.380;7.018;2023-02-15T16:27:50;40.30;;;23.08;;
39098;SDS011;24844;52.380;7.018;2023-02-15T16:35:35;41.20;;;22.35;;
39098;SDS011;24844;52.380;7.018;2023-02-15T16:38:02;34.85;;;21.38;;
39098;SDS011;24844;52.380;7.018;2023-02-15T16:43:06;44.33;;;22.50;;
39098;SDS011;24844;52.380;7.018;2023-02-15T16:45:36;36.65;;;22.40;;
39098;SDS011;24844;52.380;7.018;2023-02-15T16:48:05;39.35;;;23.60;;
39098;SDS011;24844;52.380;7.018;2023-02-15T16:50:36;44.30;;;27.67;;
39098;SDS011;24844;52.380;7.018;2023-02-15T16:53:04;47.27;;;29.90;;
39098;SDS011;24844;52.380;7.018;2023-02-15T16:55:38;42.13;;;27.67;;
39098;SDS011;24844;52.380;7.018;2023-02-15T16:58:07;42.75;;;26.15;;
39098;SDS011;24844;52.380;7.018;2023-02-15T17:00:38;42.03;;;23.27;;
39098;SDS011;24844;52.380;7.018;2023-02-15T17:05:56;39.20;;;22.25;;
39098;SDS011;24844;52.380;7.018;2023-02-15T17:08:25;38.45;;;22.52;;
39098;SDS011;24844;52.380;7.018;2023-02-15T17:13:38;37.60;;;23.63;;
39098;SDS011;24844;52.380;7.018;2023-02-15T17:18:47;37.80;;;23.40;;
39098;SDS011;24844;52.380;7.018;2023-02-15T17:21:16;41.17;;;25.25;;
39098;SDS011;24844;52.380;7.018;2023-02-15T17:23:45;38.58;;;24.85;;
39098;SDS011;24844;52.380;7.018;2023-02-15T17:26:19;50.28;;;30.05;;
39098;SDS011;24844;52.380;7.018;2023-02-15T17:28:50;54.47;;;32.15;;